Time;durP1;ratioP1;P1;durP2;ratioP2;P2;SDS_P1;SDS_P2;PMS_P1;PMS_P2;Temp;Humidity;BMP_temperature;BMP_pressure;BME280_temperature;BME280_humidity;BME280_pressure;Samples;Min_cycle;Max_cycle;Signal;HPM_P1;HPM_P2
2022/07/16 00:02:43;;;;;;;4.60;4.13;;;24.70;58.50;;;;;;4972851;28;20442;-66
2022/07/16 00:05:09;;;;;;;4.40;4.00;;;24.70;58.60;;;;;;4973551;28;20396;-66
2022/07/16 00:07:34;;;;;;;4.80;4.30;;;24.70;58.50;;;;;;4973495;28;20412;-66
2022/07/16 00:10:00;;;;;;;4.50;4.10;;;24.70;58.60;;;;;;4972870;28;20439;-66
2022/07/16 00:12:26;;;;;;;4.47;4.07;;;24.70;58.50;;;;;;4972339;28;20380;-66
2022/07/16 00:14:52;;;;;;;4.57;4.07;;;24.70;58.50;;;;;;4972751;28;20790;-66
2022/07/16 00:17:18;;;;;;;5.00;4.10;;;24.70;58.50;;;;;;4972711;28;20736;-66
2022/07/16 00:19:44;;;;;;;4.77;4.13;;;24.70;58.50;;;;;;4973134;28;20489;-66
2022/07/16 00:22:10;;;;;;;4.93;4.30;;;24.70;58.60;;;;;;4972809;28;20400;-66
2022/07/16 00:24:35;;;;;;;4.43;4.03;;;24.70;58.50;;;;;;4972165;28;20398;-66
2022/07/16 00:27:01;;;;;;;4.47;4.07;;;24.70;58.50;;;;;;4972592;28;20384;-66
2022/07/16 00:29:27;;;;;;;4.40;3.90;;;24.70;58.60;;;;;;4972507;28;20420;-66
2022/07/16 00:31:54;;;;;;;5.05;4.15;;;24.60;58.50;;;;;;4972339;28;20396;-65
2022/07/16 00:34:21;;;;;;;4.25;3.85;;;24.60;58.50;;;;;;4976524;28;20402;-66
2022/07/16 00:36:47;;;;;;;4.40;4.00;;;24.70;58.50;;;;;;4985176;28;20410;-67
2022/07/16 00:39:14;;;;;;;4.60;4.07;;;24.60;58.50;;;;;;4991905;28;20399;-67
2022/07/16 00:41:42;;;;;;;5.07;4.15;;;24.60;58.50;;;;;;4991852;28;20414;-66
2022/07/16 00:44:11;;;;;;;4.47;4.07;;;24.60;58.60;;;;;;5007361;28;20733;-67
2022/07/16 00:46:38;;;;;;;4.25;3.85;;;24.60;58.50;;;;;;4991128;28;20422;-66
2022/07/16 00:49:04;;;;;;;4.65;4.18;;;24.60;58.60;;;;;;5006873;28;20521;-66
2022/07/16 00:51:33;;;;;;;4.45;4.03;;;24.60;58.50;;;;;;4991222;28;20469;-66
2022/07/16 00:53:59;;;;;;;4.90;4.03;;;24.60;58.50;;;;;;4992569;28;20417;-67
2022/07/16 00:56:26;;;;;;;4.70;4.30;;;24.60;58.50;;;;;;5006923;28;20860;-67
2022/07/16 00:58:53;;;;;;;4.80;4.35;;;24.60;58.60;;;;;;4992013;28;20385;-66
2022/07/16 01:01:19;;;;;;;4.28;3.88;;;24.60;58.60;;;;;;4991831;28;20445;-66
2022/07/16 01:03:45;;;;;;;5.05;3.92;;;24.60;58.60;;;;;;4991560;28;20390;-67
2022/07/16 01:06:13;;;;;;;4.30;3.90;;;24.60;58.60;;;;;;4994806;28;20398;-67
2022/07/16 01:08:42;;;;;;;4.80;4.05;;;24.60;58.50;;;;;;4995435;28;20453;-68
2022/07/16 01:11:10;;;;;;;4.28;3.88;;;24.60;58.50;;;;;;4995600;28;20386;-65
2022/07/16 01:13:39;;;;;;;4.20;3.80;;;24.60;58.50;;;;;;4995115;28;20406;-66
2022/07/16 01:16:05;;;;;;;4.13;3.72;;;24.60;58.70;;;;;;4995823;28;20387;-66
2022/07/16 01:18:31;;;;;;;4.30;3.90;;;24.60;58.50;;;;;;5009872;28;20410;-66
2022/07/16 01:20:57;;;;;;;4.30;3.90;;;24.50;58.50;;;;;;4995278;28;20387;-65
2022/07/16 01:23:24;;;;;;;4.43;4.00;;;24.60;58.60;;;;;;4995353;28;20492;-66
2022/07/16 01:25:51;;;;;;;4.35;3.95;;;24.60;58.50;;;;;;5010193;28;20752;-66
2022/07/16 01:28:18;;;;;;;4.72;3.95;;;24.60;58.50;;;;;;4995150;28;20426;-66
2022/07/16 01:30:44;;;;;;;4.13;3.73;;;24.50;58.50;;;;;;5009301;28;20394;-66
2022/07/16 01:33:26;;;;;;;4.57;4.03;;;24.60;59.00;;;;;;4995082;28;20398;-65
2022/07/16 01:35:55;;;;;;;4.40;4.00;;;24.50;58.40;;;;;;4995371;28;20425;-67
2022/07/16 01:38:21;;;;;;;4.25;3.85;;;24.50;58.40;;;;;;4994745;28;20409;-66
2022/07/16 01:40:46;;;;;;;4.17;3.77;;;24.50;58.40;;;;;;4994590;28;20765;-65
2022/07/16 01:43:17;;;;;;;4.32;3.92;;;24.50;58.40;;;;;;4994921;28;20819;-66
2022/07/16 01:45:43;;;;;;;4.53;4.13;;;24.50;58.40;;;;;;4994847;28;20409;-66
2022/07/16 01:48:10;;;;;;;4.40;3.78;;;24.50;58.40;;;;;;4995076;28;20414;-66
2022/07/16 01:50:36;;;;;;;4.38;3.75;;;24.50;58.40;;;;;;5009458;28;20417;-65
2022/07/16 01:53:02;;;;;;;4.05;3.60;;;24.50;58.40;;;;;;5009663;28;20448;-66
2022/07/16 01:55:28;;;;;;;4.43;3.72;;;24.50;58.40;;;;;;4994123;28;20409;-66
2022/07/16 01:57:53;;;;;;;4.37;3.97;;;24.50;58.40;;;;;;4994299;28;20391;-66
2022/07/16 02:00:19;;;;;;;4.15;3.75;;;24.50;58.40;;;;;;4994467;28;20800;-67
2022/07/16 02:02:44;;;;;;;3.92;3.50;;;24.50;58.40;;;;;;4993933;28;20860;-66
2022/07/16 02:05:12;;;;;;;4.20;3.80;;;24.40;58.40;;;;;;4994764;28;20820;-66
2022/07/16 02:07:38;;;;;;;3.90;3.60;;;24.50;58.40;;;;;;4994361;28;20482;-66
2022/07/16 02:10:04;;;;;;;4.23;3.87;;;24.40;58.30;;;;;;4994844;28;20487;-66
2022/07/16 02:12:30;;;;;;;4.07;3.67;;;24.40;58.30;;;;;;4993998;28;20390;-65
2022/07/16 02:14:56;;;;;;;4.38;3.97;;;24.40;58.30;;;;;;4994213;28;20389;-66
2022/07/16 02:17:21;;;;;;;4.30;3.90;;;24.40;58.30;;;;;;4993107;28;20403;-66
2022/07/16 02:19:47;;;;;;;4.82;3.60;;;24.40;58.30;;;;;;4994208;28;20760;-66
2022/07/16 02:22:14;;;;;;;3.90;3.55;;;24.40;58.30;;;;;;5009201;28;20854;-66
2022/07/16 02:24:41;;;;;;;4.18;3.78;;;24.40;58.20;;;;;;5008770;28;20934;-65
2022/07/16 02:27:07;;;;;;;4.38;3.97;;;24.40;58.20;;;;;;4994116;28;20426;-66
2022/07/16 02:29:33;;;;;;;4.70;4.30;;;24.40;58.20;;;;;;4993993;28;20453;-66
2022/07/16 02:31:58;;;;;;;4.27;3.87;;;24.40;58.20;;;;;;5009042;28;20403;-66
2022/07/16 02:34:24;;;;;;;3.90;3.50;;;24.40;58.20;;;;;;5008793;28;20919;-66
2022/07/16 02:36:50;;;;;;;3.90;3.53;;;24.40;58.20;;;;;;4993638;28;20718;-66
2022/07/16 02:39:16;;;;;;;4.15;3.60;;;24.40;58.20;;;;;;4994280;28;20486;-66
2022/07/16 02:41:41;;;;;;;4.00;3.60;;;24.40;58.10;;;;;;4993691;28;20482;-66
2022/07/16 02:44:07;;;;;;;3.93;3.53;;;24.40;58.20;;;;;;4992728;28;20402;-65
2022/07/16 02:46:33;;;;;;;4.00;3.50;;;24.40;58.20;;;;;;5008151;28;20425;-66
2022/07/16 02:48:59;;;;;;;4.00;3.60;;;24.40;58.10;;;;;;4993291;28;20800;-65
2022/07/16 02:51:25;;;;;;;4.43;3.90;;;24.40;58.10;;;;;;4993513;28;20441;-66
2022/07/16 02:53:51;;;;;;;4.40;4.00;;;24.40;58.10;;;;;;4992287;28;20498;-65
2022/07/16 02:56:16;;;;;;;4.50;4.10;;;24.40;58.10;;;;;;4994133;28;20407;-66
2022/07/16 02:58:42;;;;;;;4.30;3.90;;;24.40;58.10;;;;;;4991449;28;20414;-65
2022/07/16 03:01:08;;;;;;;4.53;4.10;;;24.40;58.00;;;;;;5008436;28;20394;-66
2022/07/16 03:03:33;;;;;;;4.40;3.60;;;24.40;58.10;;;;;;4993233;28;20403;-66
2022/07/16 03:05:59;;;;;;;4.15;3.75;;;24.40;58.10;;;;;;4993327;28;20399;-66
2022/07/16 03:08:25;;;;;;;4.43;3.70;;;24.40;58.10;;;;;;5008138;28;20509;-66
2022/07/16 03:10:50;;;;;;;4.18;3.78;;;24.30;58.00;;;;;;5008036;28;20914;-66
2022/07/16 03:13:16;;;;;;;4.63;3.63;;;24.30;58.00;;;;;;4993127;28;20395;-66
2022/07/16 03:15:42;;;;;;;4.50;3.97;;;24.30;58.10;;;;;;4993033;28;20391;-66
2022/07/16 03:18:07;;;;;;;4.43;3.50;;;24.30;58.00;;;;;;4993957;28;20754;-65
2022/07/16 03:20:33;;;;;;;3.97;3.53;;;24.30;58.00;;;;;;4993432;28;20405;-66
2022/07/16 03:22:59;;;;;;;3.90;3.50;;;24.30;58.00;;;;;;4992795;28;20426;-65
2022/07/16 03:25:24;;;;;;;4.00;3.60;;;24.30;58.00;;;;;;4994512;28;20386;-66
2022/07/16 03:27:50;;;;;;;4.10;3.70;;;24.30;57.90;;;;;;5007559;28;20464;-66
2022/07/16 03:30:17;;;;;;;4.30;3.55;;;24.30;57.90;;;;;;5007894;28;20395;-65
2022/07/16 03:32:43;;;;;;;3.90;3.35;;;24.30;57.90;;;;;;4992245;28;20865;-66
2022/07/16 03:35:11;;;;;;;3.83;3.40;;;24.30;57.90;;;;;;4993696;28;20398;-65
2022/07/16 03:38:57;;;;;;;4.35;3.75;;;24.30;57.90;;;;;;5008676;28;20413;-65
2022/07/16 03:40:22;;;;;;;4.47;3.93;;;24.30;57.90;;;;;;4992884;28;20469;-65
2022/07/16 03:42:48;;;;;;;3.92;3.53;;;24.30;57.80;;;;;;4992111;28;20489;-66
2022/07/16 03:45:14;;;;;;;3.90;3.50;;;24.30;57.80;;;;;;4992537;28;20478;-66
2022/07/16 03:47:40;;;;;;;3.83;3.43;;;24.30;57.90;;;;;;5009132;28;20409;-66
2022/07/16 03:50:06;;;;;;;3.90;3.50;;;24.30;57.90;;;;;;4992435;28;20789;-66
2022/07/16 03:52:31;;;;;;;4.20;3.80;;;24.30;57.90;;;;;;4992169;28;20391;-65
2022/07/16 03:54:57;;;;;;;4.50;4.10;;;24.30;57.80;;;;;;4994648;28;20402;-66
2022/07/16 03:57:23;;;;;;;4.03;3.50;;;24.30;57.90;;;;;;4992266;28;20421;-66
2022/07/16 03:59:48;;;;;;;5.10;4.10;;;24.30;57.90;;;;;;4991990;28;20395;-66
2022/07/16 04:02:14;;;;;;;3.80;3.50;;;24.30;57.90;;;;;;4993860;28;20394;-65
2022/07/16 04:04:40;;;;;;;3.80;3.40;;;24.30;58.00;;;;;;4991865;28;20390;-66
2022/07/16 04:07:05;;;;;;;3.50;3.08;;;24.30;57.90;;;;;;4991132;28;20417;-66
2022/07/16 04:09:31;;;;;;;4.30;3.90;;;24.30;57.90;;;;;;5007735;28;20427;-66
2022/07/16 04:11:56;;;;;;;3.80;3.40;;;24.30;57.80;;;;;;4991262;28;20486;-65
2022/07/16 04:14:22;;;;;;;5.32;3.53;;;24.30;57.90;;;;;;4992199;28;20426;-65
2022/07/16 04:16:48;;;;;;;4.60;3.90;;;24.30;57.90;;;;;;4990320;28;20401;-66
2022/07/16 04:19:13;;;;;;;4.20;3.33;;;24.30;57.90;;;;;;4992394;28;20441;-66
2022/07/16 04:21:39;;;;;;;4.60;3.53;;;24.30;57.90;;;;;;4992027;28;20429;-65
2022/07/16 04:24:05;;;;;;;4.15;3.50;;;24.30;57.90;;;;;;4992082;28;20422;-66
2022/07/16 04:26:31;;;;;;;3.90;3.45;;;24.20;57.90;;;;;;4991708;28;20964;-65
2022/07/16 04:28:56;;;;;;;3.90;3.47;;;24.30;57.80;;;;;;5007473;28;20481;-66
2022/07/16 04:31:23;;;;;;;4.03;3.50;;;24.30;57.80;;;;;;4992186;28;20749;-66
2022/07/16 04:33:49;;;;;;;4.28;3.63;;;24.30;57.70;;;;;;4992694;28;20402;-66
2022/07/16 04:36:14;;;;;;;4.00;3.70;;;24.30;57.80;;;;;;4992666;28;20826;-65
2022/07/16 04:38:40;;;;;;;4.03;3.63;;;24.30;57.80;;;;;;4991544;28;20407;-66
2022/07/16 04:41:06;;;;;;;5.90;3.60;;;24.30;57.80;;;;;;4995270;28;20382;-65
2022/07/16 04:43:31;;;;;;;4.63;3.30;;;24.30;58.00;;;;;;4995883;28;20401;-65
2022/07/16 04:45:57;;;;;;;5.40;4.60;;;24.20;58.40;;;;;;4995718;28;20410;-65
2022/07/16 04:48:23;;;;;;;6.90;5.47;;;24.30;59.00;;;;;;4995832;28;20911;-66
2022/07/16 04:50:48;;;;;;;7.80;4.97;;;24.30;59.30;;;;;;4996818;28;20386;-65
2022/07/16 04:53:14;;;;;;;5.37;4.00;;;24.30;59.30;;;;;;4996453;28;20413;-66
2022/07/16 04:55:40;;;;;;;4.97;3.67;;;24.30;58.60;;;;;;5011696;28;20473;-66
2022/07/16 04:58:05;;;;;;;4.97;3.50;;;24.30;58.60;;;;;;5011140;28;20398;-65
2022/07/16 05:00:31;;;;;;;4.80;3.83;;;24.30;58.50;;;;;;4995570;28;20453;-66
2022/07/16 05:02:57;;;;;;;6.97;4.15;;;24.30;58.40;;;;;;4989538;28;20731;-66
2022/07/16 05:05:34;;;;;;;55.72;13.23;;;24.30;58.40;;;;;;4974134;28;20396;-66
2022/07/16 05:08:01;;;;;;;20.00;6.45;;;24.30;58.40;;;;;;4975711;28;20412;-65
2022/07/16 05:10:28;;;;;;;17.38;5.50;;;24.30;58.90;;;;;;4976097;28;20443;-66
2022/07/16 05:12:55;;;;;;;27.42;7.43;;;24.30;58.40;;;;;;4976132;28;20889;-66
2022/07/16 05:15:21;;;;;;;59.58;12.20;;;24.20;58.40;;;;;;4975930;28;20432;-66
2022/07/16 05:17:47;;;;;;;106.35;19.70;;;24.30;58.70;;;;;;4973727;28;20914;-65
2022/07/16 05:20:13;;;;;;;80.47;15.80;;;24.30;59.70;;;;;;4974557;28;20806;-66
2022/07/16 05:22:39;;;;;;;90.45;21.50;;;24.30;59.80;;;;;;4975599;28;20786;-65
2022/07/16 05:25:06;;;;;;;77.10;15.67;;;24.30;62.00;;;;;;4975446;28;20388;-65
2022/07/16 05:27:32;;;;;;;73.60;15.93;;;24.40;62.20;;;;;;4974416;28;20401;-66
2022/07/16 05:29:58;;;;;;;66.00;15.00;;;24.40;61.60;;;;;;4976646;28;20466;-65
2022/07/16 05:32:24;;;;;;;71.18;18.60;;;24.40;61.40;;;;;;4975096;28;20392;-68
2022/07/16 05:34:49;;;;;;;63.03;16.03;;;24.50;61.80;;;;;;4990260;28;20455;-65
2022/07/16 05:37:15;;;;;;;41.65;11.13;;;24.40;61.40;;;;;;4975645;28;20897;-65
2022/07/16 05:39:41;;;;;;;23.77;8.27;;;24.40;60.90;;;;;;4991006;28;20496;-65
2022/07/16 05:42:06;;;;;;;21.97;7.70;;;24.40;60.30;;;;;;4975334;28;20400;-65
2022/07/16 05:44:32;;;;;;;31.30;8.90;;;24.40;60.10;;;;;;4975204;28;20483;-65
2022/07/16 05:46:58;;;;;;;34.38;9.20;;;24.30;60.30;;;;;;4974804;28;20427;-65
2022/07/16 05:49:23;;;;;;;28.03;8.63;;;24.40;61.40;;;;;;4975493;28;20428;-65
2022/07/16 05:51:49;;;;;;;29.83;8.88;;;24.40;61.10;;;;;;4975201;28;20407;-65
2022/07/16 05:54:15;;;;;;;34.53;14.80;;;24.40;61.40;;;;;;4975338;28;20396;-65
2022/07/16 05:56:40;;;;;;;20.95;8.70;;;24.40;62.80;;;;;;4974943;28;20396;-65
2022/07/16 05:59:06;;;;;;;19.20;8.07;;;24.40;62.60;;;;;;4975122;28;20486;-65
2022/07/16 06:01:32;;;;;;;16.10;7.80;;;24.40;61.60;;;;;;4975169;28;20447;-65
2022/07/16 06:03:58;;;;;;;14.35;6.80;;;24.40;61.80;;;;;;4974015;28;20427;-65
2022/07/16 06:06:24;;;;;;;13.30;6.80;;;24.40;60.50;;;;;;4982622;28;20397;-65
2022/07/16 06:08:50;;;;;;;10.23;6.07;;;24.40;60.40;;;;;;4984745;28;20765;-65
2022/07/16 06:11:16;;;;;;;10.00;5.90;;;24.40;59.70;;;;;;4977012;28;20771;-65
2022/07/16 06:13:42;;;;;;;9.40;6.50;;;24.30;59.30;;;;;;4975538;28;20403;-65
2022/07/16 06:16:08;;;;;;;8.07;6.30;;;24.30;59.50;;;;;;4974937;28;20454;-65
2022/07/16 06:18:34;;;;;;;8.10;5.90;;;24.30;59.10;;;;;;4974357;28;20557;-66
2022/07/16 06:21:00;;;;;;;10.85;6.03;;;24.30;58.70;;;;;;4973641;28;20424;-66
2022/07/16 06:23:26;;;;;;;8.07;6.03;;;24.30;59.50;;;;;;4974437;28;20443;-65
2022/07/16 06:25:51;;;;;;;6.53;5.80;;;24.30;59.20;;;;;;4974487;28;20388;-65
2022/07/16 06:28:17;;;;;;;6.10;5.50;;;24.40;58.90;;;;;;4974481;28;20764;-65
2022/07/16 06:30:43;;;;;;;6.15;5.07;;;24.30;59.20;;;;;;4974337;28;20755;-65
2022/07/16 06:33:09;;;;;;;6.43;5.05;;;24.40;58.60;;;;;;4974303;28;20763;-65
2022/07/16 06:35:35;;;;;;;7.13;5.30;;;24.40;58.70;;;;;;4974420;28;20400;-65
2022/07/16 06:38:02;;;;;;;7.17;5.30;;;24.40;58.80;;;;;;4974355;28;20400;-65
2022/07/16 06:40:28;;;;;;;6.47;5.20;;;24.40;58.50;;;;;;4974296;28;20427;-65
2022/07/16 06:42:53;;;;;;;7.50;5.30;;;24.40;58.80;;;;;;4973701;28;20431;-65
2022/07/16 06:45:19;;;;;;;5.60;5.03;;;24.40;58.60;;;;;;4974172;28;20470;-65
2022/07/16 06:47:44;;;;;;;7.60;5.37;;;24.40;59.00;;;;;;4974119;28;20990;-65
2022/07/16 06:50:10;;;;;;;7.17;5.50;;;24.40;58.70;;;;;;4973474;28;20400;-66
2022/07/16 06:52:36;;;;;;;7.75;5.43;;;24.40;58.50;;;;;;4974041;28;20404;-65
2022/07/16 06:55:03;;;;;;;6.28;4.93;;;24.40;58.60;;;;;;4973665;28;20401;-65
2022/07/16 06:57:29;;;;;;;6.80;5.20;;;24.40;58.50;;;;;;4974178;28;20477;-65
2022/07/16 06:59:54;;;;;;;5.80;4.77;;;24.40;58.40;;;;;;4972898;28;20970;-65
2022/07/16 07:02:20;;;;;;;5.40;4.90;;;24.40;58.50;;;;;;4973473;28;20435;-65
2022/07/16 07:04:45;;;;;;;8.70;4.88;;;24.40;58.60;;;;;;4972328;28;20739;-66
2022/07/16 07:07:11;;;;;;;9.97;5.17;;;24.40;59.30;;;;;;4972467;28;20400;-66
2022/07/16 07:09:37;;;;;;;7.53;5.10;;;24.40;59.50;;;;;;4980705;28;20434;-65
2022/07/16 07:12:03;;;;;;;6.65;5.05;;;24.50;59.60;;;;;;4982842;28;20406;-65
2022/07/16 07:14:29;;;;;;;7.13;4.95;;;24.60;59.40;;;;;;4972565;28;20964;-65
2022/07/16 07:16:54;;;;;;;6.43;4.57;;;24.50;59.30;;;;;;4973192;28;20399;-65
2022/07/16 07:19:20;;;;;;;8.68;4.97;;;24.60;59.40;;;;;;4973674;28;20392;-65
2022/07/16 07:21:45;;;;;;;6.77;4.80;;;24.60;59.30;;;;;;4973463;28;20766;-65
2022/07/16 07:24:11;;;;;;;6.37;5.10;;;24.50;58.80;;;;;;4972380;28;20405;-65
2022/07/16 07:26:37;;;;;;;5.68;4.50;;;24.50;58.80;;;;;;4973524;28;20400;-65
2022/07/16 07:29:02;;;;;;;5.93;4.63;;;24.50;58.70;;;;;;4973043;28;20486;-65
2022/07/16 07:31:28;;;;;;;4.73;4.17;;;24.50;58.70;;;;;;4973240;28;20396;-65
2022/07/16 07:33:54;;;;;;;6.80;4.75;;;24.40;58.50;;;;;;4972195;28;20404;-65
2022/07/16 07:36:19;;;;;;;8.17;6.10;;;24.40;58.50;;;;;;4973413;28;20392;-65
2022/07/16 07:38:45;;;;;;;7.60;5.67;;;24.40;58.40;;;;;;4973140;28;20428;-65
2022/07/16 07:41:10;;;;;;;7.93;5.40;;;24.40;58.40;;;;;;4987999;28;20397;-65
2022/07/16 07:43:36;;;;;;;8.93;5.10;;;24.40;58.00;;;;;;4973131;28;20470;-65
2022/07/16 07:46:02;;;;;;;8.38;5.15;;;24.40;58.10;;;;;;4973196;28;20420;-65
2022/07/16 07:48:27;;;;;;;13.75;6.07;;;24.40;57.90;;;;;;4971696;28;20416;-65
2022/07/16 07:50:53;;;;;;;13.73;6.53;;;24.40;57.90;;;;;;4972692;28;20392;-65
2022/07/16 07:53:19;;;;;;;16.08;6.57;;;24.40;57.90;;;;;;4973192;28;20396;-65
2022/07/16 07:55:44;;;;;;;13.82;6.70;;;24.40;58.00;;;;;;4973115;28;20479;-65
2022/07/16 07:58:10;;;;;;;18.37;6.80;;;24.40;58.00;;;;;;4971728;28;20422;-65
2022/07/16 08:00:36;;;;;;;16.08;6.50;;;24.40;58.00;;;;;;4973017;28;20401;-65
2022/07/16 08:03:01;;;;;;;13.20;6.30;;;24.40;58.10;;;;;;4972662;28;20878;-65
2022/07/16 08:05:27;;;;;;;12.57;5.90;;;24.40;58.10;;;;;;4972959;28;20883;-65
2022/07/16 08:07:53;;;;;;;13.07;6.00;;;24.40;58.10;;;;;;4972776;28;20445;-65
2022/07/16 08:10:19;;;;;;;10.38;5.60;;;24.40;58.10;;;;;;4971559;28;20400;-65
2022/07/16 08:12:45;;;;;;;10.57;5.85;;;24.40;58.00;;;;;;4971379;28;20755;-65
2022/07/16 08:15:11;;;;;;;9.75;5.60;;;24.40;58.10;;;;;;4971715;28;20392;-65
2022/07/16 08:17:39;;;;;;;9.23;5.53;;;24.40;58.00;;;;;;4972792;28;20913;-65
2022/07/16 08:20:05;;;;;;;10.77;5.28;;;24.40;58.10;;;;;;4972716;28;20760;-65
2022/07/16 08:22:31;;;;;;;8.33;4.83;;;24.40;58.10;;;;;;4972572;28;20476;-65
2022/07/16 08:27:40;;;;;;;7.53;5.68;;;24.40;58.00;;;;;;4972477;28;20885;-65
2022/07/16 08:30:06;;;;;;;8.00;4.90;;;24.40;58.00;;;;;;4972582;28;20408;-65
2022/07/16 08:32:32;;;;;;;9.02;5.20;;;24.40;58.00;;;;;;4972283;28;20874;-65
2022/07/16 08:34:57;;;;;;;8.00;5.23;;;24.40;58.00;;;;;;4971898;28;20854;-65
2022/07/16 08:37:37;;;;;;;7.77;5.07;;;24.40;57.90;;;;;;4971359;28;20396;-65
2022/07/16 08:40:05;;;;;;;6.40;4.85;;;24.50;57.90;;;;;;4971400;28;20428;-65
2022/07/16 08:42:35;;;;;;;7.07;5.00;;;24.40;57.90;;;;;;4971287;28;20403;-65
2022/07/16 08:45:02;;;;;;;7.57;5.10;;;24.40;57.90;;;;;;4971968;28;20397;-66
2022/07/16 08:47:30;;;;;;;6.03;4.70;;;24.40;57.80;;;;;;4972436;28;20470;-65
2022/07/16 08:50:00;;;;;;;6.15;4.75;;;24.50;57.90;;;;;;4972382;28;20492;-65
2022/07/16 08:52:28;;;;;;;5.78;4.50;;;24.40;57.90;;;;;;4970880;28;20810;-65
2022/07/16 08:54:54;;;;;;;6.97;4.80;;;24.40;57.80;;;;;;4971803;28;20407;-65
2022/07/16 08:57:21;;;;;;;7.82;4.85;;;24.40;57.70;;;;;;4987345;28;20814;-65
2022/07/16 08:59:47;;;;;;;6.40;4.75;;;24.40;57.70;;;;;;4971109;28;20495;-65
2022/07/16 09:02:13;;;;;;;5.70;4.50;;;24.40;57.70;;;;;;4971113;28;20487;-65
2022/07/16 09:04:40;;;;;;;6.38;4.63;;;24.40;57.70;;;;;;4972314;28;20404;-65
2022/07/16 09:07:05;;;;;;;6.53;4.50;;;24.40;57.70;;;;;;4971556;28;20403;-65
2022/07/16 09:09:31;;;;;;;4.97;4.43;;;24.40;57.40;;;;;;4972098;28;20528;-65
2022/07/16 09:11:57;;;;;;;6.03;4.80;;;24.40;57.50;;;;;;4972296;28;20427;-65
2022/07/16 09:14:22;;;;;;;5.73;4.10;;;24.40;57.60;;;;;;4972226;28;20806;-65
2022/07/16 09:16:50;;;;;;;5.45;4.25;;;24.50;57.40;;;;;;4971980;28;20958;-65
2022/07/16 09:19:25;;;;;;;5.47;4.10;;;24.50;57.30;;;;;;4971936;28;20400;-65
2022/07/16 09:22:10;;;;;;;5.00;4.15;;;24.50;57.40;;;;;;4972112;28;20384;-65
2022/07/16 09:24:46;;;;;;;5.35;4.00;;;24.50;57.40;;;;;;4971974;28;20479;-65
2022/07/16 09:27:25;;;;;;;5.28;4.00;;;24.50;57.30;;;;;;4974617;28;20746;-65
2022/07/16 09:29:54;;;;;;;5.43;4.40;;;24.40;57.30;;;;;;4975557;28;20416;-65
2022/07/16 09:32:36;;;;;;;5.95;4.18;;;24.50;57.40;;;;;;4975682;28;20388;-65
2022/07/16 09:35:11;;;;;;;4.93;4.05;;;24.50;57.10;;;;;;4975204;28;20425;-65
2022/07/16 09:37:56;;;;;;;5.13;4.18;;;24.50;57.00;;;;;;4975485;28;20882;-65
2022/07/16 09:40:41;;;;;;;4.75;3.90;;;24.50;57.00;;;;;;4975314;28;20774;-65
2022/07/16 09:43:13;;;;;;;5.30;4.20;;;24.50;57.00;;;;;;4974804;28;20507;-65
2022/07/16 09:45:40;;;;;;;6.57;4.22;;;24.50;56.90;;;;;;4975175;28;20427;-65
2022/07/16 09:48:26;;;;;;;5.65;4.05;;;24.50;56.90;;;;;;4975308;28;20423;-64
2022/07/16 09:50:55;;;;;;;12.98;7.35;;;24.50;56.70;;;;;;4967946;28;20404;-65
2022/07/16 09:53:25;;;;;;;10.82;6.32;;;24.50;59.70;;;;;;4975171;28;20402;-65
2022/07/16 09:55:57;;;;;;;11.80;5.88;;;24.50;58.00;;;;;;4974967;28;20940;-65
2022/07/16 09:58:24;;;;;;;9.57;4.88;;;24.60;59.40;;;;;;4975288;28;20396;-65
2022/07/16 10:00:50;;;;;;;6.65;4.45;;;24.60;58.10;;;;;;4990310;28;20487;-66
2022/07/16 10:03:16;;;;;;;10.25;4.88;;;24.60;57.60;;;;;;4992978;28;20485;-65
2022/07/16 10:05:42;;;;;;;6.38;3.90;;;24.60;57.30;;;;;;4994456;28;20442;-65
2022/07/16 10:08:08;;;;;;;7.32;4.00;;;24.60;56.90;;;;;;4994221;28;20488;-65
2022/07/16 10:10:33;;;;;;;7.07;4.50;;;24.60;56.80;;;;;;4994250;28;20407;-66
2022/07/16 10:12:59;;;;;;;6.18;4.35;;;24.60;57.10;;;;;;4993573;28;20872;-65
2022/07/16 10:15:25;;;;;;;5.82;4.10;;;24.60;57.00;;;;;;4994307;28;21070;-65
2022/07/16 10:17:51;;;;;;;6.15;4.35;;;24.60;57.00;;;;;;4994304;28;20406;-65
2022/07/16 10:20:19;;;;;;;5.97;4.00;;;24.60;56.90;;;;;;4994302;28;20426;-65
2022/07/16 10:22:50;;;;;;;6.70;4.03;;;24.60;56.80;;;;;;4994038;28;20410;-65
2022/07/16 10:25:21;;;;;;;5.78;4.25;;;24.60;56.90;;;;;;4993972;28;20424;-65
2022/07/16 10:27:47;;;;;;;6.47;4.10;;;24.60;56.90;;;;;;4991645;28;20965;-65
2022/07/16 10:30:21;;;;;;;6.22;4.35;;;24.60;57.10;;;;;;4988077;28;20489;-65
2022/07/16 10:32:59;;;;;;;61.90;55.67;;;24.60;57.10;;;;;;4974146;28;20479;-65
2022/07/16 10:35:45;;;;;;;67.60;60.83;;;24.70;57.60;;;;;;4974699;28;20455;-65
2022/07/16 10:38:18;;;;;;;47.00;42.35;;;24.80;57.10;;;;;;4979021;28;20486;-64
2022/07/16 10:40:46;;;;;;;40.90;36.80;;;24.80;56.60;;;;;;4993427;28;20410;-65
2022/07/16 10:43:20;;;;;;;29.23;26.33;;;24.70;56.20;;;;;;4982418;28;20902;-65
2022/07/16 10:45:57;;;;;;;17.88;16.10;;;24.70;55.70;;;;;;4993414;28;20418;-65
2022/07/16 10:48:25;;;;;;;12.57;11.27;;;24.70;55.40;;;;;;4991272;28;20422;-65
2022/07/16 10:51:13;;;;;;;14.68;13.10;;;24.70;55.30;;;;;;4988162;28;20394;-65
2022/07/16 10:53:57;;;;;;;13.48;9.57;;;24.60;54.90;;;;;;4992293;28;20407;-65
2022/07/16 10:56:34;;;;;;;11.60;10.50;;;24.60;55.10;;;;;;4989431;28;20423;-66
2022/07/16 10:59:02;;;;;;;10.95;9.35;;;24.60;55.20;;;;;;4986699;28;20418;-67
2022/07/16 11:01:29;;;;;;;12.30;10.45;;;24.60;55.40;;;;;;4972536;28;20435;-64
2022/07/16 11:03:55;;;;;;;11.60;10.40;;;24.60;56.20;;;;;;4973686;28;20802;-64
2022/07/16 11:06:21;;;;;;;12.35;10.30;;;24.70;56.60;;;;;;4971955;28;20486;-67
2022/07/16 11:08:52;;;;;;;9.98;8.98;;;24.70;56.70;;;;;;4973465;28;20427;-65
2022/07/16 11:11:18;;;;;;;11.05;8.10;;;24.70;56.60;;;;;;4973221;28;20393;-65
2022/07/16 11:13:46;;;;;;;9.70;7.80;;;24.70;56.30;;;;;;4973464;28;20392;-66
2022/07/16 11:16:12;;;;;;;10.75;8.35;;;24.70;56.10;;;;;;4973221;28;20407;-69
2022/07/16 11:18:39;;;;;;;9.77;7.32;;;24.60;56.40;;;;;;4971693;28;20392;-68
2022/07/16 11:21:06;;;;;;;9.30;7.70;;;24.70;56.20;;;;;;4972730;28;20419;-66
2022/07/16 11:24:00;;;;;;;8.10;6.90;;;24.70;56.80;;;;;;4973356;28;20420;-67
2022/07/16 11:26:28;;;;;;;10.25;6.95;;;24.70;56.60;;;;;;4971977;28;20428;-68
2022/07/16 11:28:59;;;;;;;7.97;7.17;;;24.70;56.70;;;;;;4973070;28;21002;-65
2022/07/16 11:31:27;;;;;;;8.10;6.70;;;24.70;56.60;;;;;;4972908;28;20483;-66
2022/07/16 11:34:02;;;;;;;7.20;6.30;;;24.70;56.40;;;;;;4973409;28;20472;-69
2022/07/16 11:36:35;;;;;;;8.15;6.35;;;24.70;56.30;;;;;;4973063;28;20388;-66
2022/07/16 11:39:06;;;;;;;7.35;6.30;;;24.70;56.20;;;;;;4972703;28;20416;-67
2022/07/16 11:41:33;;;;;;;7.70;5.68;;;24.70;56.20;;;;;;4973199;28;20483;-66
2022/07/16 11:44:07;;;;;;;6.35;5.72;;;24.70;56.20;;;;;;4976764;28;20396;-66
2022/07/16 11:46:33;;;;;;;6.57;5.80;;;24.70;56.10;;;;;;4976922;28;20483;-65
2022/07/16 11:48:59;;;;;;;6.15;5.53;;;24.70;56.00;;;;;;4972295;28;20506;-66
2022/07/16 11:51:28;;;;;;;6.47;5.40;;;24.70;55.60;;;;;;4972550;28;20475;-67
2022/07/16 11:53:55;;;;;;;5.57;5.07;;;24.70;55.70;;;;;;4971347;28;20731;-66
2022/07/16 11:56:35;;;;;;;8.02;5.00;;;24.80;55.40;;;;;;4972348;28;20393;-66
2022/07/16 11:59:03;;;;;;;7.07;5.30;;;24.80;55.60;;;;;;4969870;28;20914;-65
2022/07/16 12:01:37;;;;;;;6.77;5.00;;;24.80;55.40;;;;;;4971435;28;20392;-66
2022/07/16 12:04:03;;;;;;;7.65;4.90;;;24.80;55.50;;;;;;4970691;28;20407;-65
2022/07/16 12:06:29;;;;;;;5.30;4.65;;;24.70;55.60;;;;;;4970920;28;20399;-66
2022/07/16 12:08:56;;;;;;;6.53;4.70;;;24.80;55.70;;;;;;4968384;28;20424;-65
2022/07/16 12:11:42;;;;;;;6.18;4.90;;;24.80;55.70;;;;;;4970905;28;20447;-65
2022/07/16 12:14:08;;;;;;;7.70;4.88;;;24.80;55.70;;;;;;4969968;28;20770;-65
2022/07/16 12:16:33;;;;;;;5.83;4.40;;;24.80;55.60;;;;;;4971205;28;20398;-66
2022/07/16 12:19:14;;;;;;;5.20;4.70;;;24.80;55.50;;;;;;4970722;28;20431;-66
2022/07/16 12:21:41;;;;;;;5.40;4.90;;;24.80;55.50;;;;;;4971258;28;20483;-65
2022/07/16 12:24:07;;;;;;;5.63;4.90;;;24.80;55.40;;;;;;4971321;28;20432;-66
2022/07/16 12:26:38;;;;;;;5.35;4.60;;;24.80;55.40;;;;;;4969536;28;20930;-65
2022/07/16 12:29:07;;;;;;;5.20;4.53;;;24.80;55.40;;;;;;4969479;28;20802;-65
2022/07/16 12:31:34;;;;;;;5.82;4.63;;;24.80;55.50;;;;;;4969742;28;20396;-67
2022/07/16 12:34:02;;;;;;;8.95;4.80;;;25.00;55.70;;;;;;4971134;28;20404;-66
2022/07/16 12:36:36;;;;;;;8.75;5.00;;;24.90;55.30;;;;;;4985861;28;20396;-66
2022/07/16 12:39:04;;;;;;;5.88;4.25;;;24.90;55.10;;;;;;4970760;28;20408;-66
2022/07/16 12:41:36;;;;;;;8.00;4.43;;;24.90;55.10;;;;;;4969188;28;20688;-65
2022/07/16 12:44:06;;;;;;;7.13;4.47;;;24.90;55.20;;;;;;4969748;28;20454;-65
2022/07/16 12:46:35;;;;;;;5.38;4.32;;;24.90;55.20;;;;;;4970528;28;20408;-65
2022/07/16 12:49:06;;;;;;;5.18;4.40;;;24.90;55.20;;;;;;4969280;28;20764;-65